createdAt,value
2023-02-26T00:00:20.685Z,1.34
2023-02-26T00:02:48.652Z,1.68
2023-02-26T00:05:16.451Z,1.93
2023-02-26T00:07:43.293Z,1.36
2023-02-26T00:10:12.475Z,1.55
2023-02-26T00:12:39.674Z,1.41
2023-02-26T00:15:08.166Z,1.22
2023-02-26T00:17:45.824Z,1.53
2023-02-26T00:20:13.698Z,1.66
2023-02-26T00:22:41.020Z,1.69
2023-02-26T00:25:08.527Z,1.52
2023-02-26T00:27:35.716Z,1.68
2023-02-26T00:30:06.835Z,1.37
2023-02-26T00:32:34.419Z,1.33
2023-02-26T00:35:01.221Z,1.16
2023-02-26T00:37:34.949Z,1.23
2023-02-26T00:40:25.076Z,1.25
2023-02-26T00:42:52.720Z,1.16
2023-02-26T00:45:19.668Z,1.16
2023-02-26T00:48:06.535Z,1.18
2023-02-26T00:50:33.490Z,1.29
2023-02-26T00:53:20.164Z,1.25
2023-02-26T00:55:46.597Z,1.34
2023-02-26T00:58:13.046Z,1.47
2023-02-26T01:00:39.422Z,1.50
2023-02-26T01:03:06.245Z,1.47
2023-02-26T01:05:32.899Z,1.66
2023-02-26T01:08:08.004Z,1.97
2023-02-26T01:10:34.943Z,2.02
2023-02-26T01:13:01.541Z,1.87
2023-02-26T01:15:28.364Z,1.91
2023-02-26T01:18:16.165Z,1.84
2023-02-26T01:20:48.273Z,1.96
2023-02-26T01:23:21.933Z,1.93
2023-02-26T01:25:49.961Z,2.00
2023-02-26T01:28:16.776Z,2.05
2023-02-26T01:30:43.923Z,1.93
2023-02-26T01:33:16.539Z,1.95
2023-02-26T01:36:00.571Z,1.92
2023-02-26T01:39:11.345Z,1.85
2023-02-26T01:41:50.697Z,1.94
2023-02-26T01:44:26.795Z,1.97
2023-02-26T01:47:18.079Z,2.04
2023-02-26T01:49:45.103Z,2.10
2023-02-26T01:52:33.203Z,1.90
2023-02-26T01:54:59.755Z,1.94
2023-02-26T01:57:26.398Z,1.96
2023-02-26T01:59:52.867Z,2.07
2023-02-26T02:02:22.645Z,2.04
2023-02-26T02:04:50.047Z,2.05
2023-02-26T02:07:17.611Z,1.97
2023-02-26T02:09:44.103Z,2.09
2023-02-26T02:12:20.061Z,2.05
2023-02-26T02:15:04.503Z,2.11
2023-02-26T02:17:58.280Z,1.98
2023-02-26T02:20:36.748Z,1.68
2023-02-26T02:23:17.750Z,1.64
2023-02-26T02:26:19.933Z,1.67
2023-02-26T02:29:28.246Z,1.58
2023-02-26T02:32:02.190Z,1.57
2023-02-26T02:34:31.383Z,1.60
2023-02-26T02:37:17.287Z,1.66
2023-02-26T02:39:49.926Z,1.48
2023-02-26T02:42:16.272Z,1.63
2023-02-26T02:44:47.940Z,1.56
2023-02-26T02:47:17.231Z,1.31
2023-02-26T02:50:01.553Z,1.29
2023-02-26T02:52:38.757Z,1.28
2023-02-26T02:55:10.532Z,1.21
2023-02-26T02:57:43.756Z,1.31
2023-02-26T03:00:13.415Z,1.31
2023-02-26T03:03:02.763Z,1.35
2023-02-26T03:05:29.422Z,1.41
2023-02-26T03:08:02.186Z,1.45
2023-02-26T03:10:28.679Z,1.63
2023-02-26T03:12:55.148Z,1.71
2023-02-26T03:15:36.846Z,1.76
2023-02-26T03:18:20.997Z,1.67
2023-02-26T03:21:06.730Z,1.56
2023-02-26T03:23:38.308Z,1.65
2023-02-26T03:26:15.391Z,1.61
2023-02-26T03:28:47.202Z,1.83
2023-02-26T03:31:27.075Z,1.68
2023-02-26T03:34:07.015Z,1.66
2023-02-26T03:36:47.005Z,1.74
2023-02-26T03:39:31.712Z,1.70
2023-02-26T03:42:06.652Z,1.65
2023-02-26T03:44:56.917Z,1.79
2023-02-26T03:47:25.057Z,1.79
2023-02-26T03:50:16.539Z,1.68
2023-02-26T03:52:47.020Z,1.70
2023-02-26T03:55:16.916Z,1.63
2023-02-26T03:57:44.308Z,1.62
2023-02-26T04:00:12.463Z,1.46
2023-02-26T04:02:57.649Z,1.73
2023-02-26T04:05:28.689Z,1.41
2023-02-26T04:07:57.133Z,1.72
2023-02-26T04:10:32.960Z,1.59
2023-02-26T04:13:01.022Z,1.37
2023-02-26T04:15:27.807Z,1.24
2023-02-26T04:17:54.172Z,1.27
2023-02-26T04:20:20.716Z,1.15
2023-02-26T04:22:47.109Z,1.28
2023-02-26T04:25:13.515Z,0.96
2023-02-26T04:27:39.889Z,0.79
2023-02-26T04:30:07.196Z,0.74
2023-02-26T04:32:33.681Z,0.73
2023-02-26T04:35:00.031Z,0.69
2023-02-26T04:37:26.402Z,0.73
2023-02-26T04:39:52.920Z,0.70
2023-02-26T04:42:19.389Z,0.71
2023-02-26T04:44:45.814Z,0.61
2023-02-26T04:47:12.223Z,0.59
2023-02-26T04:49:38.683Z,0.71
2023-02-26T04:52:05.101Z,0.63
2023-02-26T04:54:31.705Z,0.57
2023-02-26T04:56:58.077Z,0.60
2023-02-26T04:59:24.457Z,0.54
2023-02-26T05:01:50.895Z,0.62
2023-02-26T05:04:17.331Z,0.43
2023-02-26T05:06:43.860Z,0.39
2023-02-26T05:09:10.328Z,0.33
2023-02-26T05:11:36.736Z,0.43
2023-02-26T05:14:03.169Z,0.61
2023-02-26T05:16:29.971Z,0.69
2023-02-26T05:18:56.534Z,0.67
2023-02-26T05:21:25.835Z,0.59
2023-02-26T05:23:52.576Z,0.30
2023-02-26T05:26:18.963Z,0.38
2023-02-26T05:28:45.797Z,0.42
2023-02-26T05:31:13.760Z,0.52
2023-02-26T05:33:40.119Z,0.63
2023-02-26T05:36:07.182Z,0.47
2023-02-26T05:38:33.776Z,0.46
2023-02-26T05:41:00.352Z,0.50
2023-02-26T05:43:27.286Z,0.58
2023-02-26T05:45:55.468Z,0.71
2023-02-26T05:48:22.928Z,0.68
2023-02-26T05:50:50.073Z,0.70
2023-02-26T05:53:16.966Z,0.29
2023-02-26T05:55:43.369Z,0.21
2023-02-26T05:58:10.193Z,0.49
2023-02-26T06:00:36.701Z,0.44
2023-02-26T06:03:03.293Z,0.18
2023-02-26T06:05:29.874Z,0.25
2023-02-26T06:07:56.217Z,-0.10
2023-02-26T06:10:22.568Z,-0.05
2023-02-26T06:12:49.202Z,0.06
2023-02-26T06:15:15.634Z,-0.01
2023-02-26T06:17:42.015Z,-0.02
2023-02-26T06:20:09.532Z,0.00
2023-02-26T06:22:35.928Z,0.06
2023-02-26T06:25:02.412Z,0.14
2023-02-26T06:27:28.784Z,0.18
2023-02-26T06:29:55.253Z,0.01
2023-02-26T06:32:21.729Z,0.07
2023-02-26T06:34:48.176Z,0.17
2023-02-26T06:37:15.154Z,0.18
2023-02-26T06:39:41.708Z,0.13
2023-02-26T06:42:11.788Z,0.32
2023-02-26T06:44:38.135Z,0.20
2023-02-26T06:47:04.735Z,0.26
2023-02-26T06:49:31.114Z,0.22
2023-02-26T06:51:57.761Z,0.25
2023-02-26T06:54:24.141Z,0.41
2023-02-26T06:56:50.814Z,0.50
2023-02-26T06:59:17.161Z,0.44
2023-02-26T07:01:43.869Z,0.52
2023-02-26T07:04:10.399Z,0.65
2023-02-26T07:06:36.810Z,0.62
2023-02-26T07:09:03.278Z,0.46
2023-02-26T07:11:29.803Z,0.75
2023-02-26T07:13:56.252Z,0.67
2023-02-26T07:16:22.778Z,0.64
2023-02-26T07:18:49.377Z,0.54
2023-02-26T07:21:15.812Z,0.36
2023-02-26T07:23:42.380Z,0.34
2023-02-26T07:26:08.990Z,0.66
2023-02-26T07:28:35.592Z,0.74
2023-02-26T07:31:02.195Z,0.70
2023-02-26T07:33:28.963Z,0.57
2023-02-26T07:35:55.359Z,0.64
2023-02-26T07:38:21.727Z,0.67
2023-02-26T07:40:48.247Z,0.72
2023-02-26T07:43:14.651Z,0.80
2023-02-26T07:45:41.024Z,0.99
2023-02-26T07:48:07.895Z,0.96
2023-02-26T07:50:34.264Z,1.12
2023-02-26T07:53:00.629Z,1.19
2023-02-26T07:55:27.716Z,1.02
2023-02-26T07:57:54.297Z,1.04
2023-02-26T08:00:21.124Z,1.15
2023-02-26T08:02:47.866Z,1.23
2023-02-26T08:05:14.551Z,1.21
2023-02-26T08:07:40.894Z,1.26
2023-02-26T08:10:07.687Z,1.34
2023-02-26T08:12:34.128Z,1.31
2023-02-26T08:15:00.489Z,1.26
2023-02-26T08:17:26.941Z,1.26
2023-02-26T08:19:53.763Z,1.25
2023-02-26T08:22:20.808Z,1.26
2023-02-26T08:24:47.161Z,1.36
2023-02-26T08:27:13.750Z,1.33
2023-02-26T08:29:40.306Z,1.36
2023-02-26T08:32:06.848Z,1.33
2023-02-26T08:34:33.291Z,1.29
2023-02-26T08:36:59.675Z,1.32
2023-02-26T08:39:26.111Z,1.28
2023-02-26T08:41:52.479Z,1.51
2023-02-26T08:44:18.922Z,1.34
2023-02-26T08:46:45.382Z,1.26
2023-02-26T08:49:11.840Z,1.34
2023-02-26T08:51:38.195Z,1.56
2023-02-26T08:54:04.775Z,1.55
2023-02-26T08:56:31.981Z,1.58
2023-02-26T08:58:58.386Z,1.61
2023-02-26T09:01:25.321Z,1.66
2023-02-26T09:03:51.942Z,1.60
2023-02-26T09:06:18.318Z,1.55
2023-02-26T09:08:44.682Z,1.57
2023-02-26T09:11:11.169Z,1.64
2023-02-26T09:13:37.850Z,1.65
2023-02-26T09:16:04.602Z,1.82
2023-02-26T09:18:31.068Z,1.76
2023-02-26T09:20:57.462Z,1.69
2023-02-26T09:23:23.959Z,1.82
2023-02-26T09:25:54.966Z,1.95
2023-02-26T09:28:22.817Z,2.21
2023-02-26T09:30:53.030Z,2.08
2023-02-26T09:33:20.267Z,1.97
2023-02-26T09:35:51.020Z,2.27
2023-02-26T09:38:17.959Z,2.36
2023-02-26T09:40:56.400Z,2.06
2023-02-26T09:43:50.731Z,2.27
2023-02-26T09:46:37.110Z,2.32
2023-02-26T09:49:22.066Z,2.14
2023-02-26T09:51:53.595Z,2.44
2023-02-26T09:54:24.551Z,2.37
2023-02-26T09:56:53.605Z,2.53
2023-02-26T09:59:20.062Z,2.47
2023-02-26T10:01:57.050Z,2.60
2023-02-26T10:04:53.878Z,2.48
2023-02-26T10:07:34.363Z,2.60
2023-02-26T10:10:37.885Z,2.72
2023-02-26T10:13:04.955Z,2.89
2023-02-26T10:15:39.414Z,3.07
2023-02-26T10:18:23.968Z,3.36
2023-02-26T10:20:56.496Z,3.31
2023-02-26T10:23:43.651Z,3.24
2023-02-26T10:26:22.206Z,3.29
2023-02-26T10:29:02.796Z,3.70
2023-02-26T10:31:29.591Z,3.43
2023-02-26T10:34:23.597Z,3.60
2023-02-26T10:37:19.514Z,3.56
2023-02-26T10:39:57.768Z,3.29
2023-02-26T10:42:32.639Z,3.27
2023-02-26T10:45:07.286Z,3.61
2023-02-26T10:47:36.685Z,3.75
2023-02-26T10:50:06.608Z,3.69
2023-02-26T10:52:36.112Z,3.89
2023-02-26T10:55:37.235Z,4.14
2023-02-26T10:58:14.221Z,4.23
2023-02-26T11:00:43.558Z,4.33
2023-02-26T11:03:18.015Z,4.39
2023-02-26T11:05:44.901Z,4.43
2023-02-26T11:08:15.834Z,4.45
2023-02-26T11:10:45.304Z,4.49
2023-02-26T11:13:12.943Z,4.24
2023-02-26T11:15:46.044Z,4.50
2023-02-26T11:18:47.616Z,4.94
2023-02-26T11:21:43.903Z,4.86
2023-02-26T11:28:02.024Z,4.92
2023-02-26T11:30:43.683Z,4.91
2023-02-26T11:33:50.952Z,4.70
2023-02-26T11:39:37.361Z,4.44
2023-02-26T11:42:10.633Z,4.61
2023-02-26T11:44:54.808Z,4.27
2023-02-26T11:47:31.710Z,3.99
2023-02-26T11:50:27.364Z,3.97
2023-02-26T11:53:23.841Z,3.91
2023-02-26T11:56:36.835Z,3.90
2023-02-26T11:59:37.713Z,4.19
2023-02-26T12:02:37.021Z,4.00
2023-02-26T12:05:06.651Z,3.91
2023-02-26T12:07:33.133Z,4.06
2023-02-26T12:09:59.728Z,3.83
2023-02-26T12:12:52.528Z,4.10
2023-02-26T12:15:46.851Z,4.34
2023-02-26T12:18:27.253Z,4.38
2023-02-26T12:21:12.651Z,4.41
2023-02-26T12:24:17.980Z,4.10
2023-02-26T12:26:57.818Z,3.84
2023-02-26T12:29:30.351Z,3.77
2023-02-26T12:32:28.524Z,3.77
2023-02-26T12:35:05.058Z,3.85
2023-02-26T12:37:50.140Z,3.93
2023-02-26T12:40:42.087Z,3.82
2023-02-26T12:43:40.998Z,3.61
2023-02-26T12:46:11.660Z,3.58
2023-02-26T12:49:00.018Z,3.74
2023-02-26T12:51:47.166Z,3.90
2023-02-26T12:54:47.054Z,4.00
2023-02-26T12:57:20.756Z,3.99
2023-02-26T13:00:12.735Z,4.07
2023-02-26T13:02:57.866Z,4.08
2023-02-26T13:05:36.828Z,3.86
2023-02-26T13:08:09.239Z,4.16
2023-02-26T13:10:57.033Z,3.91
2023-02-26T13:13:55.208Z,4.14
2023-02-26T13:16:35.420Z,4.09
2023-02-26T13:19:26.667Z,4.01
2023-02-26T13:22:28.724Z,3.91
2023-02-26T13:25:04.325Z,3.91
2023-02-26T13:27:39.411Z,3.91
2023-02-26T13:30:30.757Z,3.99
2023-02-26T13:32:58.945Z,3.99
2023-02-26T13:35:38.143Z,3.95
2023-02-26T13:38:19.733Z,4.10
2023-02-26T13:41:09.647Z,4.25
2023-02-26T13:43:39.188Z,4.35
2023-02-26T13:46:36.606Z,4.24
2023-02-26T13:49:22.087Z,4.29
2023-02-26T13:51:51.962Z,3.83
2023-02-26T13:54:21.292Z,4.12
2023-02-26T13:57:20.661Z,4.31
2023-02-26T13:59:54.194Z,4.23
2023-02-26T14:02:20.545Z,4.01
2023-02-26T14:04:51.174Z,4.06
2023-02-26T14:07:37.558Z,3.99
2023-02-26T14:10:16.032Z,3.99
2023-02-26T14:12:44.308Z,3.99
2023-02-26T14:15:13.710Z,3.77
2023-02-26T14:17:48.380Z,3.87
2023-02-26T14:20:29.441Z,4.00
2023-02-26T14:23:09.502Z,4.00
2023-02-26T14:25:52.096Z,3.98
2023-02-26T14:28:24.890Z,4.00
2023-02-26T14:30:59.682Z,3.70
2023-02-26T14:33:31.688Z,3.75
2023-02-26T14:35:58.986Z,3.84
2023-02-26T14:38:30.976Z,3.75
2023-02-26T14:41:06.477Z,3.85
2023-02-26T14:43:51.429Z,3.85
2023-02-26T14:46:18.550Z,3.74
2023-02-26T14:48:45.203Z,3.66
2023-02-26T14:51:20.323Z,3.71
2023-02-26T14:54:13.191Z,3.71
2023-02-26T14:57:01.397Z,4.01
2023-02-26T15:00:13.738Z,3.95
2023-02-26T15:03:12.193Z,4.10
2023-02-26T15:05:49.300Z,4.11
2023-02-26T15:08:39.843Z,4.05
2023-02-26T15:11:06.322Z,3.84
2023-02-26T15:13:46.255Z,3.98
2023-02-26T15:16:32.967Z,4.05
2023-02-26T15:19:08.364Z,4.26
2023-02-26T15:21:59.835Z,4.20
2023-02-26T15:24:29.391Z,4.18
2023-02-26T15:27:00.627Z,4.27
2023-02-26T15:29:35.435Z,4.22
2023-02-26T15:32:15.432Z,4.40
2023-02-26T15:34:54.276Z,4.08
2023-02-26T15:37:23.235Z,3.83
2023-02-26T15:39:50.944Z,3.96
2023-02-26T15:42:19.454Z,3.86
2023-02-26T15:44:56.833Z,3.83
2023-02-26T15:47:23.715Z,3.94
2023-02-26T15:49:50.195Z,3.77
2023-02-26T15:52:21.605Z,3.89
2023-02-26T15:54:53.096Z,3.81
2023-02-26T15:57:20.659Z,3.94
2023-02-26T15:59:49.509Z,3.77
2023-02-26T16:02:20.362Z,3.89
2023-02-26T16:04:46.732Z,3.97
2023-02-26T16:07:13.864Z,3.93
2023-02-26T16:09:45.258Z,3.88
2023-02-26T16:12:19.216Z,3.92
2023-02-26T16:14:57.128Z,3.77
2023-02-26T16:17:29.693Z,3.65
2023-02-26T16:19:57.923Z,3.53
2023-02-26T16:22:35.780Z,3.63
2023-02-26T16:25:18.485Z,3.68
2023-02-26T16:27:58.372Z,3.61
2023-02-26T16:30:30.917Z,3.52
2023-02-26T16:32:58.934Z,3.56
2023-02-26T16:35:31.775Z,3.54
2023-02-26T16:37:58.111Z,3.36
2023-02-26T16:40:35.084Z,3.48
2023-02-26T16:43:23.317Z,3.21
2023-02-26T16:45:54.464Z,3.45
2023-02-26T16:48:27.870Z,3.15
2023-02-26T16:51:00.861Z,3.11
2023-02-26T16:53:37.275Z,3.04
2023-02-26T16:56:04.903Z,3.12
2023-02-26T16:58:32.886Z,3.03
2023-02-26T17:01:08.084Z,2.95
2023-02-26T17:03:35.740Z,2.92
2023-02-26T17:06:07.230Z,2.88
2023-02-26T17:08:41.984Z,3.00
2023-02-26T17:11:17.828Z,2.74
2023-02-26T17:13:44.465Z,2.85
2023-02-26T17:16:13.105Z,2.48
2023-02-26T17:18:40.155Z,2.64
2023-02-26T17:21:06.747Z,2.44
2023-02-26T17:23:37.000Z,2.65
2023-02-26T17:26:04.354Z,2.74
2023-02-26T17:28:35.566Z,2.71
2023-02-26T17:31:03.436Z,2.61
2023-02-26T17:33:29.986Z,2.47
2023-02-26T17:35:59.830Z,2.31
2023-02-26T17:38:27.787Z,2.29
2023-02-26T17:40:55.634Z,2.29
2023-02-26T17:43:22.914Z,2.19
2023-02-26T17:45:49.838Z,2.19
2023-02-26T17:48:17.596Z,2.25
2023-02-26T17:50:52.671Z,1.98
2023-02-26T17:53:20.706Z,2.18
2023-02-26T17:55:49.521Z,2.20
2023-02-26T17:58:18.558Z,1.99
2023-02-26T18:00:49.637Z,2.02
2023-02-26T18:03:16.767Z,2.11
2023-02-26T18:05:43.236Z,2.17
2023-02-26T18:08:30.883Z,2.08
2023-02-26T18:10:58.803Z,2.04
2023-02-26T18:13:26.316Z,1.96
2023-02-26T18:15:53.746Z,1.98
2023-02-26T18:18:22.180Z,1.98
2023-02-26T18:20:48.908Z,2.01
2023-02-26T18:23:16.723Z,1.96
2023-02-26T18:25:45.546Z,1.95
2023-02-26T18:28:21.912Z,1.87
2023-02-26T18:30:49.666Z,1.98
2023-02-26T18:33:18.973Z,2.04
2023-02-26T18:35:47.885Z,1.95
2023-02-26T18:38:16.935Z,2.06
2023-02-26T18:40:44.644Z,2.06
2023-02-26T18:43:12.592Z,1.95
2023-02-26T18:45:40.088Z,1.95
2023-02-26T18:48:06.560Z,1.98
2023-02-26T18:50:33.017Z,1.74
2023-02-26T18:53:01.179Z,1.86
2023-02-26T18:55:27.669Z,1.78
2023-02-26T18:57:54.017Z,1.94
2023-02-26T19:00:21.286Z,2.00
2023-02-26T19:02:47.948Z,1.96
2023-02-26T19:05:16.295Z,1.99
2023-02-26T19:07:44.159Z,2.07
2023-02-26T19:10:14.525Z,1.98
2023-02-26T19:12:41.780Z,2.21
2023-02-26T19:15:09.344Z,2.25
2023-02-26T19:17:35.818Z,2.30
2023-02-26T19:20:02.301Z,2.29
2023-02-26T19:22:28.751Z,2.35
2023-02-26T19:24:55.095Z,2.31
2023-02-26T19:27:21.477Z,2.32
2023-02-26T19:29:47.935Z,2.41
2023-02-26T19:32:14.490Z,2.50
2023-02-26T19:34:41.030Z,2.45
2023-02-26T19:37:07.853Z,2.59
2023-02-26T19:39:34.454Z,2.47
2023-02-26T19:42:00.841Z,2.44
2023-02-26T19:44:31.771Z,2.45
2023-02-26T19:46:59.278Z,2.32
2023-02-26T19:49:25.906Z,2.30
2023-02-26T19:51:52.549Z,2.48
2023-02-26T19:54:19.511Z,2.46
2023-02-26T19:56:46.440Z,2.51
2023-02-26T19:59:13.159Z,2.54
2023-02-26T20:01:41.363Z,2.54
2023-02-26T20:04:08.473Z,2.54
2023-02-26T20:06:35.500Z,2.56
2023-02-26T20:09:02.516Z,2.37
2023-02-26T20:11:29.063Z,2.46
2023-02-26T20:13:55.643Z,2.36
2023-02-26T20:16:22.062Z,2.41
2023-02-26T20:18:49.131Z,2.43
2023-02-26T20:21:15.558Z,2.41
2023-02-26T20:23:41.980Z,2.41
2023-02-26T20:26:11.845Z,2.49
2023-02-26T20:28:39.153Z,2.40
2023-02-26T20:31:06.313Z,2.32
2023-02-26T20:33:33.472Z,2.46
2023-02-26T20:36:00.672Z,2.12
2023-02-26T20:38:28.213Z,2.17
2023-02-26T20:40:56.541Z,1.99
2023-02-26T20:43:25.068Z,2.25
2023-02-26T20:45:53.823Z,2.11
2023-02-26T20:48:20.170Z,1.99
2023-02-26T20:50:47.261Z,1.99
2023-02-26T20:53:13.695Z,1.99
2023-02-26T20:55:40.126Z,2.17
2023-02-26T20:58:06.543Z,2.07
2023-02-26T21:00:33.043Z,1.88
2023-02-26T21:02:59.533Z,1.72
2023-02-26T21:05:25.974Z,1.71
2023-02-26T21:07:52.378Z,1.86
2023-02-26T21:10:19.681Z,1.64
2023-02-26T21:12:46.452Z,1.38
2023-02-26T21:15:13.949Z,1.52
2023-02-26T21:17:42.310Z,1.46
2023-02-26T21:20:11.834Z,1.59
2023-02-26T21:22:38.971Z,1.45
2023-02-26T21:25:07.190Z,1.53
2023-02-26T21:27:34.576Z,1.54
2023-02-26T21:30:01.584Z,1.51
2023-02-26T21:32:27.996Z,1.59
2023-02-26T21:34:55.639Z,1.45
2023-02-26T21:37:22.020Z,1.38
2023-02-26T21:39:48.423Z,1.41
2023-02-26T21:42:15.424Z,1.48
2023-02-26T21:44:41.822Z,1.38
2023-02-26T21:47:08.643Z,1.42
2023-02-26T21:49:35.163Z,1.31
2023-02-26T21:52:06.147Z,1.30
2023-02-26T21:54:32.682Z,1.40
2023-02-26T21:56:59.319Z,1.30
2023-02-26T21:59:25.942Z,1.22
2023-02-26T22:01:52.969Z,1.05
2023-02-26T22:04:19.914Z,1.04
2023-02-26T22:06:46.414Z,1.10
2023-02-26T22:09:12.962Z,1.05
2023-02-26T22:11:39.338Z,1.08
2023-02-26T22:14:06.214Z,1.03
2023-02-26T22:16:33.021Z,0.98
2023-02-26T22:18:59.448Z,1.07
2023-02-26T22:21:26.369Z,0.74
2023-02-26T22:23:52.961Z,0.68
2023-02-26T22:26:19.319Z,0.80
2023-02-26T22:28:45.734Z,0.68
2023-02-26T22:31:12.540Z,0.72
2023-02-26T22:33:39.047Z,0.68
2023-02-26T22:36:05.716Z,0.53
2023-02-26T22:38:32.145Z,0.64
2023-02-26T22:40:58.513Z,0.64
2023-02-26T22:43:24.888Z,0.63
2023-02-26T22:45:51.384Z,0.61
2023-02-26T22:48:17.951Z,0.43
2023-02-26T22:50:44.596Z,0.43
2023-02-26T22:53:10.999Z,0.45
2023-02-26T22:55:37.345Z,0.48
2023-02-26T22:58:04.647Z,0.52
2023-02-26T23:00:31.087Z,0.58
2023-02-26T23:02:57.628Z,0.42
2023-02-26T23:05:24.183Z,0.41
2023-02-26T23:07:50.571Z,0.63
2023-02-26T23:10:19.053Z,0.63
2023-02-26T23:12:46.866Z,0.40
2023-02-26T23:15:13.898Z,0.54
2023-02-26T23:17:40.895Z,0.36
2023-02-26T23:20:10.050Z,0.48
2023-02-26T23:22:37.629Z,0.53
2023-02-26T23:25:04.698Z,0.45
2023-02-26T23:27:31.127Z,0.71
2023-02-26T23:29:57.873Z,0.33
2023-02-26T23:32:24.257Z,0.27
2023-02-26T23:34:50.643Z,0.01
2023-02-26T23:37:17.165Z,0.25
2023-02-26T23:39:43.610Z,0.35
2023-02-26T23:42:10.138Z,0.35
2023-02-26T23:44:36.480Z,0.49
2023-02-26T23:47:02.944Z,0.45
2023-02-26T23:49:30.555Z,0.68
2023-02-26T23:51:56.911Z,0.50
2023-02-26T23:54:23.315Z,0.43
2023-02-26T23:56:49.730Z,0.43
2023-02-26T23:59:17.838Z,0.49
